createdAt,value
2022-08-30T03:52:29.093Z,23.9
2022-08-30T03:58:19.052Z,23.8
2022-08-30T04:03:41.499Z,23.7
2022-08-30T04:09:23.557Z,23.7
2022-08-30T04:14:38.262Z,23.6
2022-08-30T04:20:00.007Z,23.6
2022-08-30T04:25:32.245Z,23.5
2022-08-30T04:31:03.238Z,23.4
2022-08-30T04:36:41.263Z,23.4
2022-08-30T04:42:21.022Z,23.3
2022-08-30T04:47:58.417Z,23.3
2022-08-30T04:53:21.257Z,23.3
2022-08-30T04:58:59.403Z,23.3
2022-08-30T05:04:48.776Z,23.2
2022-08-30T05:10:28.153Z,23.2
2022-08-30T05:16:10.751Z,23.1
2022-08-30T05:21:50.268Z,23.1
2022-08-30T05:27:28.017Z,23.1
2022-08-30T05:33:11.404Z,23
2022-08-30T05:38:49.232Z,22.9
2022-08-30T05:45:00.830Z,22.9
2022-08-30T05:50:41.957Z,22.9
2022-08-30T05:56:20.197Z,22.9
2022-08-30T06:01:57.489Z,22.9
2022-08-30T06:08:06.285Z,22.9
2022-08-30T06:13:43.550Z,22.9
2022-08-30T06:19:28.586Z,22.9
2022-08-30T06:25:41.098Z,22.9
2022-08-30T06:31:04.450Z,22.8
2022-08-30T06:36:58.830Z,22.8
2022-08-30T06:42:49.620Z,22.8
2022-08-30T06:48:30.851Z,22.8
2022-08-30T06:54:16.046Z,22.8
2022-08-30T07:00:01.140Z,22.8
2022-08-30T07:05:42.476Z,22.8
2022-08-30T07:11:28.438Z,22.8
2022-08-30T07:17:08.658Z,22.8
2022-08-30T07:22:57.014Z,22.9
2022-08-30T07:28:56.088Z,22.9
2022-08-30T07:34:37.902Z,22.9
2022-08-30T07:40:22.557Z,22.9
2022-08-30T07:46:05.065Z,22.9
2022-08-30T07:51:32.600Z,23
2022-08-30T07:57:11.901Z,23
